Time;durP1;ratioP1;P1;durP2;ratioP2;P2;SDS_P1;SDS_P2;PMS_P1;PMS_P2;Temp;Humidity;BMP_temperature;BMP_pressure;BME280_temperature;BME280_humidity;BME280_pressure;Samples;Min_cycle;Max_cycle;Signal;HPM_P1;HPM_P2
2024/01/15 00:01:15;;;;;;;1.98;0.68;;;;;;;16.13;48.79;99572.75;21024462;28;20048;-67
2024/01/15 00:11:17;;;;;;;2.13;0.70;;;;;;;16.12;48.56;99554.09;20984661;28;20496;-68
2024/01/15 00:21:19;;;;;;;2.28;0.68;;;;;;;16.12;48.33;99564.81;20942293;28;20055;-66
2024/01/15 00:31:21;;;;;;;2.67;0.80;;;;;;;16.07;48.38;99557.22;20992974;28;20143;-67
2024/01/15 00:41:23;;;;;;;1.02;0.60;;;;;;;16.04;48.32;99536.06;20998872;28;20688;-67
2024/01/15 00:51:25;;;;;;;1.17;0.80;;;;;;;16.04;48.03;99530.72;21016128;28;20097;-67
2024/01/15 01:01:27;;;;;;;2.78;0.90;;;;;;;16.06;47.97;99524.19;20994547;28;20484;-67
2024/01/15 01:11:29;;;;;;;1.75;0.93;;;;;;;15.93;47.87;99502.31;21004301;28;20055;-65
2024/01/15 01:21:31;;;;;;;1.20;0.40;;;;;;;16.04;47.75;99499.34;21008295;28;20592;-67
2024/01/15 01:31:32;;;;;;;1.90;0.77;;;;;;;16.11;47.34;99520.19;21001046;28;20048;-66
2024/01/15 01:41:35;;;;;;;1.85;0.63;;;;;;;16.08;47.63;99527.56;21007054;28;20047;-68
2024/01/15 01:51:39;;;;;;;1.73;0.68;;;;;;;15.99;47.60;99490.94;21020590;28;20048;-67
2024/01/15 02:01:41;;;;;;;2.23;0.60;;;;;;;16.11;47.31;99478.06;21034922;28;20587;-67
2024/01/15 02:11:46;;;;;;;3.08;1.38;;;;;;;16.16;47.36;99482.97;21009059;28;20045;-67
2024/01/15 02:21:47;;;;;;;2.17;0.52;;;;;;;16.14;47.06;99472.41;20993890;28;20581;-67
2024/01/15 02:31:49;;;;;;;1.15;0.52;;;;;;;16.13;47.35;99472.53;20973006;28;20520;-67
2024/01/15 02:41:51;;;;;;;1.45;0.43;;;;;;;16.12;47.28;99470.84;20980920;28;20074;-67
2024/01/15 02:51:53;;;;;;;1.17;0.43;;;;;;;16.07;47.35;99472.19;20995257;28;20550;-67
2024/01/15 03:01:55;;;;;;;1.80;0.47;;;;;;;16.05;47.47;99492.97;20994013;28;20055;-67
2024/01/15 03:11:56;;;;;;;0.60;0.40;;;;;;;16.02;47.28;99477.19;20995555;28;20146;-67
2024/01/15 03:22:00;;;;;;;0.88;0.45;;;;;;;16.06;47.30;99485.75;20991001;28;20055;-66
2024/01/15 03:32:02;;;;;;;1.35;0.55;;;;;;;16.04;47.38;99499.34;20992290;28;20074;-67
2024/01/15 03:42:04;;;;;;;1.40;0.60;;;;;;;16.08;47.10;99505.22;20994556;28;20047;-67
2024/01/15 03:52:06;;;;;;;0.95;0.50;;;;;;;16.05;47.05;99492.13;21030728;28;20052;-66
2024/01/15 04:02:08;;;;;;;1.88;0.75;;;;;;;16.03;46.95;99481.56;20981048;28;20048;-66
2024/01/15 04:12:10;;;;;;;1.50;0.50;;;;;;;16.03;47.00;99480.69;21015147;28;20044;-67
2024/01/15 04:22:11;;;;;;;0.88;0.25;;;;;;;16.00;47.06;99484.56;21025879;28;20048;-67
2024/01/15 04:32:13;;;;;;;1.42;0.60;;;;;;;16.03;47.08;99465.44;21018408;28;20044;-66
2024/01/15 04:42:15;;;;;;;1.20;0.43;;;;;;;16.02;47.04;99473.66;20986342;28;20055;-66
2024/01/15 04:52:17;;;;;;;0.85;0.40;;;;;;;16.06;46.88;99491.97;20983356;28;20059;-66
2024/01/15 05:02:19;;;;;;;2.08;0.50;;;;;;;16.07;46.92;99482.91;20996884;28;20511;-66
2024/01/15 05:12:20;;;;;;;1.25;0.40;;;;;;;16.09;46.49;99454.06;20973535;28;20514;-66
2024/01/15 05:22:24;;;;;;;2.08;0.52;;;;;;;16.02;46.80;99442.28;20974965;28;20053;-67
2024/01/15 05:32:26;;;;;;;1.00;0.45;;;;;;;16.02;46.58;99438.75;20995625;28;20121;-67
2024/01/15 05:42:30;;;;;;;1.00;0.50;;;;;;;16.01;46.77;99447.81;20977102;28;20048;-66
2024/01/15 05:52:32;;;;;;;1.95;0.70;;;;;;;15.99;46.72;99466.78;20980481;28;20048;-67
2024/01/15 06:02:34;;;;;;;1.90;0.80;;;;;;;15.96;46.52;99442.94;21029569;28;20055;-67
2024/01/15 06:12:36;;;;;;;1.33;0.50;;;;;;;15.97;46.69;99435.72;21000375;28;20076;-67
2024/01/15 06:22:39;;;;;;;1.92;0.50;;;;;;;15.92;46.52;99425.47;21001839;28;20059;-67
2024/01/15 06:32:40;;;;;;;1.67;0.65;;;;;;;15.92;46.66;99438.88;20995188;28;20189;-67
2024/01/15 06:42:42;;;;;;;1.15;0.40;;;;;;;15.91;46.79;99429.97;21025461;28;20048;-67
2024/01/15 06:52:44;;;;;;;1.40;0.55;;;;;;;15.88;46.59;99427.63;20991766;28;20131;-67
2024/01/15 07:02:46;;;;;;;2.20;0.70;;;;;;;15.90;46.56;99435.50;20995474;28;20047;-66
2024/01/15 07:12:48;;;;;;;2.13;0.70;;;;;;;15.86;46.50;99426.91;21030465;28;20051;-66
2024/01/15 07:22:50;;;;;;;1.27;0.55;;;;;;;15.87;46.63;99433.09;20992362;28;20048;-66
2024/01/15 07:32:52;;;;;;;1.00;0.40;;;;;;;15.86;46.69;99432.28;21007908;28;20066;-66
2024/01/15 07:42:54;;;;;;;2.85;0.70;;;;;;;15.83;46.57;99434.41;21007801;28;20129;-66
2024/01/15 07:52:56;;;;;;;2.08;0.60;;;;;;;15.85;46.44;99435.09;21040387;28;20056;-67
2024/01/15 08:02:58;;;;;;;1.60;0.50;;;;;;;15.83;46.33;99431.72;21016591;28;20044;-67
2024/01/15 08:13:00;;;;;;;2.13;0.73;;;;;;;15.81;46.61;99435.41;21003424;28;20055;-66
2024/01/15 08:23:01;;;;;;;1.75;0.55;;;;;;;15.86;46.62;99436.78;21009878;28;20403;-66
2024/01/15 08:33:03;;;;;;;2.25;0.80;;;;;;;15.88;46.22;99435.66;20991166;28;20428;-66
2024/01/15 08:43:19;;;;;;;1.60;0.70;;;;;;;16.05;46.50;99436.59;20982808;28;20079;-70
2024/01/15 08:53:21;;;;;;;3.13;0.77;;;;;;;16.48;46.19;99425.03;20979209;28;20055;-71
2024/01/15 09:03:23;;;;;;;2.20;0.60;;;;;;;16.76;46.55;99440.88;21005432;28;20052;-71
2024/01/15 09:13:25;;;;;;;2.30;0.70;;;;;;;17.03;46.23;99439.81;20981718;28;20052;-74
2024/01/15 09:23:26;;;;;;;1.73;0.70;;;;;;;17.36;45.50;99438.97;20999018;28;20427;-71
2024/01/15 09:33:31;;;;;;;1.38;0.60;;;;;;;17.48;45.40;99443.00;20963418;28;20058;-72
2024/01/15 09:43:33;;;;;;;3.20;0.75;;;;;;;17.61;45.45;99406.63;20970777;28;20058;-71
2024/01/15 09:53:37;;;;;;;2.88;0.70;;;;;;;17.91;45.53;99426.63;21006244;28;20048;-71
2024/01/15 10:03:39;;;;;;;3.92;0.60;;;;;;;18.04;45.40;99426.09;20997777;28;20052;-69
2024/01/15 10:13:46;;;;;;;2.78;0.55;;;;;;;18.16;45.39;99425.72;21011847;28;20799;-72
2024/01/15 10:23:51;;;;;;;2.28;0.60;;;;;;;18.26;45.52;99426.34;20993826;28;20048;-70
2024/01/15 10:33:53;;;;;;;1.85;0.60;;;;;;;18.21;45.52;99391.84;20974792;28;20048;-70
2024/01/15 10:43:55;;;;;;;2.20;0.63;;;;;;;18.42;46.31;99395.81;20990829;28;20059;-75
2024/01/15 10:53:57;;;;;;;1.83;0.55;;;;;;;18.48;46.13;99402.31;20980276;28;20048;-76
2024/01/15 11:03:59;;;;;;;1.60;0.70;;;;;;;18.52;46.29;99403.66;20983665;28;20048;-74
2024/01/15 11:14:01;;;;;;;1.67;0.50;;;;;;;18.54;46.13;99404.31;21021998;28;20047;-74
2024/01/15 11:24:06;;;;;;;2.67;0.63;;;;;;;18.35;45.88;99401.06;21018541;28;20132;-74
2024/01/15 11:34:09;;;;;;;0.98;0.40;;;;;;;18.21;45.79;99393.72;21007725;28;20040;-74
2024/01/15 11:44:12;;;;;;;1.48;0.63;;;;;;;18.19;45.66;99417.28;21014793;28;20047;-74
2024/01/15 11:54:15;;;;;;;1.17;0.40;;;;;;;18.19;45.51;99420.81;20996973;28;20105;-74
2024/01/15 12:04:19;;;;;;;1.73;0.50;;;;;;;18.06;45.48;99445.59;21019369;28;20134;-73
2024/01/15 12:14:22;;;;;;;0.90;0.30;;;;;;;18.02;45.60;99468.50;21016899;28;20046;-73
2024/01/15 12:24:24;;;;;;;1.45;0.40;;;;;;;17.92;45.59;99474.06;21036825;28;20051;-72
2024/01/15 12:34:29;;;;;;;0.80;0.40;;;;;;;17.83;45.78;99467.00;20999107;28;20048;-73
2024/01/15 12:44:31;;;;;;;0.88;0.30;;;;;;;17.91;45.62;99477.78;21008850;28;20044;-73
2024/01/15 12:54:33;;;;;;;1.52;0.40;;;;;;;17.97;45.60;99474.38;20964903;28;20052;-74
2024/01/15 13:04:35;;;;;;;2.17;0.50;;;;;;;18.06;45.32;99493.25;20977342;28;20051;-74
2024/01/15 13:14:37;;;;;;;0.82;0.38;;;;;;;18.07;45.16;99519.16;20991154;28;20419;-74
2024/01/15 13:24:39;;;;;;;0.95;0.40;;;;;;;18.10;45.10;99526.91;21015442;28;20053;-74
2024/01/15 13:34:41;;;;;;;0.50;0.40;;;;;;;18.06;44.91;99517.47;21007886;28;20044;-74
2024/01/15 13:44:42;;;;;;;1.13;0.50;;;;;;;18.14;44.55;99554.34;20981255;28;20104;-73
2024/01/15 13:54:44;;;;;;;0.65;0.30;;;;;;;18.10;44.26;99527.72;20998671;28;20063;-73
2024/01/15 14:04:51;;;;;;;1.02;0.32;;;;;;;18.00;44.48;99547.75;21002981;28;20044;-73
2024/01/15 14:14:53;;;;;;;0.95;0.40;;;;;;;17.88;44.47;99566.94;21027931;28;20519;-74
2024/01/15 14:24:55;;;;;;;0.82;0.32;;;;;;;17.85;44.41;99567.28;21009476;28;20063;-73
2024/01/15 14:34:57;;;;;;;0.70;0.30;;;;;;;17.86;44.37;99584.28;21022419;28;20047;-71
2024/01/15 14:44:59;;;;;;;0.55;0.30;;;;;;;17.78;44.48;99603.94;21003367;28;20054;-70
2024/01/15 14:55:01;;;;;;;1.35;0.57;;;;;;;17.78;44.64;99602.13;21016383;28;20047;-71
2024/01/15 15:05:03;;;;;;;2.95;0.57;;;;;;;17.79;44.97;99606.50;21018920;28;20052;-71
2024/01/15 15:15:07;;;;;;;1.50;0.50;;;;;;;17.69;45.21;99616.59;21036618;28;20545;-72
2024/01/15 15:25:13;;;;;;;2.42;0.57;;;;;;;17.72;45.58;99634.22;21014019;28;20062;-72
2024/01/15 15:35:15;;;;;;;1.83;0.60;;;;;;;17.75;45.34;99664.38;20998989;28;20055;-72
2024/01/15 15:45:17;;;;;;;1.20;0.60;;;;;;;17.59;45.36;99642.78;21007318;28;20059;-70
2024/01/15 15:55:18;;;;;;;1.48;0.47;;;;;;;17.74;46.04;99662.69;21027301;28;20700;-71
2024/01/15 16:05:20;;;;;;;2.70;0.68;;;;;;;17.74;46.34;99677.97;21000652;28;20051;-70
2024/01/15 16:15:25;;;;;;;1.00;0.50;;;;;;;17.76;46.64;99686.72;20997314;28;20044;-69
2024/01/15 16:25:26;;;;;;;1.92;0.93;;;;;;;17.62;46.83;99677.44;21003956;28;20048;-65
2024/01/15 16:35:29;;;;;;;1.95;0.80;;;;;;;17.61;49.17;99724.19;20995364;28;20137;-70
2024/01/15 16:45:31;;;;;;;2.33;0.80;;;;;;;17.47;51.14;99731.88;21006822;28;20055;-69
2024/01/15 16:55:32;;;;;;;2.38;1.05;;;;;;;17.62;51.46;99745.56;20990226;28;20056;-68
2024/01/15 17:05:35;;;;;;;3.13;0.63;;;;;;;17.53;51.45;99757.31;20980519;28;20076;-68
2024/01/15 17:15:37;;;;;;;3.58;0.68;;;;;;;17.37;51.60;99766.97;20975456;28;20044;-75
2024/01/15 17:25:39;;;;;;;3.30;0.57;;;;;;;17.37;51.42;99785.00;20988179;28;20138;-72
2024/01/15 17:35:51;;;;;;;1.05;0.40;;;;;;;17.22;51.51;99801.69;20996355;28;20048;-72
2024/01/15 17:45:55;;;;;;;1.33;0.40;;;;;;;17.37;51.22;99806.50;20999883;28;20455;-72
2024/01/15 17:55:56;;;;;;;0.98;0.40;;;;;;;17.45;50.84;99830.75;20991772;28;20055;-71
2024/01/15 18:05:58;;;;;;;1.90;0.60;;;;;;;17.34;50.53;99860.63;20976009;28;20054;-72
2024/01/15 18:16:00;;;;;;;1.00;0.40;;;;;;;17.23;50.60;99892.19;21000656;28;20116;-72
2024/01/15 18:26:04;;;;;;;1.15;0.50;;;;;;;17.23;50.38;99857.22;20993676;28;20295;-69
2024/01/15 18:36:09;;;;;;;1.15;0.32;;;;;;;17.04;49.81;99831.34;20991641;28;20129;-69
2024/01/15 18:46:11;;;;;;;;;;;;;;;17.24;49.26;99891.19;21027406;28;20059;-70
2024/01/15 18:56:13;;;;;;;0.40;0.20;;;;;;;17.16;49.27;99907.22;21031586;28;19924;-70
2024/01/15 19:06:15;;;;;;;0.38;0.20;;;;;;;17.16;49.07;99941.34;21006707;28;20496;-70
2024/01/15 19:16:21;;;;;;;1.08;0.43;;;;;;;17.14;48.84;99956.81;21006402;28;20048;-69
2024/01/15 19:26:23;;;;;;;1.13;0.40;;;;;;;17.11;48.88;99960.63;21007846;28;20040;-70
2024/01/15 19:36:26;;;;;;;1.00;0.45;;;;;;;17.04;48.58;99951.50;21021284;28;20055;-70
2024/01/15 19:46:28;;;;;;;2.28;0.50;;;;;;;16.88;48.73;99958.38;21018778;28;20056;-70
2024/01/15 19:56:30;;;;;;;1.80;0.50;;;;;;;16.79;49.11;99986.16;20994094;28;20389;-70
2024/01/15 20:06:32;;;;;;;1.63;0.50;;;;;;;16.73;48.64;100014.50;20982798;28;20051;-70
2024/01/15 20:16:34;;;;;;;0.77;0.38;;;;;;;16.72;48.33;100022.69;20966224;28;20047;-70
2024/01/15 20:26:35;;;;;;;1.20;0.63;;;;;;;16.67;48.17;100025.84;20999003;28;20052;-70
2024/01/15 20:36:38;;;;;;;0.60;0.40;;;;;;;16.54;47.99;100020.81;20994395;28;20070;-70
2024/01/15 20:46:40;;;;;;;0.75;0.30;;;;;;;16.56;47.85;100042.16;20987344;28;20051;-70
2024/01/15 20:56:41;;;;;;;1.17;0.40;;;;;;;16.56;47.68;100047.53;20958092;28;20056;-70
2024/01/15 21:06:43;;;;;;;1.73;0.55;;;;;;;16.54;47.19;100074.56;21018371;28;20048;-70
2024/01/15 21:16:46;;;;;;;0.65;0.40;;;;;;;16.45;47.30;100067.41;21019760;28;20415;-70
2024/01/15 21:26:48;;;;;;;1.20;0.40;;;;;;;16.34;47.14;100079.97;21019064;28;20085;-70
2024/01/15 21:36:50;;;;;;;1.92;0.73;;;;;;;16.26;47.22;100071.81;21007417;28;20052;-70
2024/01/15 21:46:51;;;;;;;1.90;0.52;;;;;;;16.11;47.05;100052.63;20988879;28;20048;-69
2024/01/15 21:56:53;;;;;;;1.10;0.50;;;;;;;16.20;46.89;100080.47;21013098;28;20070;-70
2024/01/15 22:06:55;;;;;;;0.63;0.40;;;;;;;16.17;46.75;100104.91;20997388;28;20051;-70
2024/01/15 22:16:57;;;;;;;0.95;0.50;;;;;;;16.17;46.63;100142.53;20982456;28;20130;-69
2024/01/15 22:26:59;;;;;;;1.35;0.50;;;;;;;16.12;46.42;100161.72;21010727;28;20062;-70
2024/01/15 22:37:01;;;;;;;1.42;0.52;;;;;;;16.11;46.27;100186.06;21015049;28;20059;-70
2024/01/15 22:47:03;;;;;;;1.75;0.57;;;;;;;16.04;46.22;100180.41;20952729;28;20040;-70
2024/01/15 22:57:04;;;;;;;1.58;0.70;;;;;;;16.06;45.82;100187.34;20980904;28;20680;-70
2024/01/15 23:07:06;;;;;;;1.75;0.80;;;;;;;16.03;46.08;100197.50;20992196;28;20519;-70
2024/01/15 23:17:08;;;;;;;1.05;0.40;;;;;;;16.04;45.82;100196.50;20995918;28;20048;-70
2024/01/15 23:27:10;;;;;;;1.13;0.40;;;;;;;16.01;45.77;100191.41;21019733;28;20048;-70
2024/01/15 23:37:11;;;;;;;1.45;0.50;;;;;;;15.94;45.74;100223.38;21005462;28;20136;-70
2024/01/15 23:47:13;;;;;;;1.50;0.70;;;;;;;15.93;45.86;100221.69;20987249;28;20117;-70
2024/01/15 23:57:15;;;;;;;1.13;0.60;;;;;;;15.88;45.61;100213.16;21005170;28;20122;-70
